sensor_id;sensor_type;location;lat;lon;timestamp;P1;durP1;ratioP1;P2;durP2;ratioP2
68792;SDS011;55778;54.346;10.210;2023-04-24T00:01:29;8.48;;;4.70;;
68792;SDS011;55778;54.346;10.210;2023-04-24T00:03:54;6.28;;;4.05;;
68792;SDS011;55778;54.346;10.210;2023-04-24T00:08:57;7.55;;;4.60;;
68792;SDS011;55778;54.346;10.210;2023-04-24T00:11:23;6.57;;;4.47;;
68792;SDS011;55778;54.346;10.210;2023-04-24T00:13:48;5.72;;;4.03;;
68792;SDS011;55778;54.346;10.210;2023-04-24T00:16:14;8.70;;;4.47;;
68792;SDS011;55778;54.346;10.210;2023-04-24T00:18:39;6.75;;;4.18;;
68792;SDS011;55778;54.346;10.210;2023-04-24T00:21:04;6.10;;;4.00;;
68792;SDS011;55778;54.346;10.210;2023-04-24T00:23:30;7.00;;;4.57;;
68792;SDS011;55778;54.346;10.210;2023-04-24T00:25:55;6.10;;;4.00;;
68792;SDS011;55778;54.346;10.210;2023-04-24T00:28:20;7.95;;;4.53;;
68792;SDS011;55778;54.346;10.210;2023-04-24T00:30:46;6.28;;;4.47;;
68792;SDS011;55778;54.346;10.210;2023-04-24T00:33:11;6.38;;;4.28;;
68792;SDS011;55778;54.346;10.210;2023-04-24T00:35:36;6.78;;;4.22;;
68792;SDS011;55778;54.346;10.210;2023-04-24T00:38:02;6.55;;;4.60;;
68792;SDS011;55778;54.346;10.210;2023-04-24T00:40:28;6.78;;;4.15;;
68792;SDS011;55778;54.346;10.210;2023-04-24T00:42:53;6.30;;;4.57;;
68792;SDS011;55778;54.346;10.210;2023-04-24T00:45:19;6.38;;;4.22;;
68792;SDS011;55778;54.346;10.210;2023-04-24T00:47:44;7.10;;;4.70;;
68792;SDS011;55778;54.346;10.210;2023-04-24T00:50:10;6.68;;;4.50;;
68792;SDS011;55778;54.346;10.210;2023-04-24T00:52:38;7.88;;;4.90;;
68792;SDS011;55778;54.346;10.210;2023-04-24T00:55:05;7.05;;;4.70;;
68792;SDS011;55778;54.346;10.210;2023-04-24T00:57:32;6.53;;;3.55;;
68792;SDS011;55778;54.346;10.210;2023-04-24T00:59:57;7.60;;;4.38;;
68792;SDS011;55778;54.346;10.210;2023-04-24T01:02:23;6.57;;;4.10;;
68792;SDS011;55778;54.346;10.210;2023-04-24T01:04:50;8.60;;;4.55;;
68792;SDS011;55778;54.346;10.210;2023-04-24T01:07:17;7.22;;;4.65;;
68792;SDS011;55778;54.346;10.210;2023-04-24T01:09:46;6.75;;;4.18;;
68792;SDS011;55778;54.346;10.210;2023-04-24T01:12:14;7.25;;;4.60;;
68792;SDS011;55778;54.346;10.210;2023-04-24T01:14:40;9.45;;;5.40;;
68792;SDS011;55778;54.346;10.210;2023-04-24T01:17:05;8.35;;;5.30;;
68792;SDS011;55778;54.346;10.210;2023-04-24T01:19:32;7.90;;;5.03;;
68792;SDS011;55778;54.346;10.210;2023-04-24T01:21:58;10.02;;;5.80;;
68792;SDS011;55778;54.346;10.210;2023-04-24T01:24:24;9.18;;;5.28;;
68792;SDS011;55778;54.346;10.210;2023-04-24T01:26:50;8.90;;;5.13;;
68792;SDS011;55778;54.346;10.210;2023-04-24T01:29:15;9.55;;;5.63;;
68792;SDS011;55778;54.346;10.210;2023-04-24T01:31:41;9.25;;;5.78;;
68792;SDS011;55778;54.346;10.210;2023-04-24T01:34:06;8.52;;;5.28;;
68792;SDS011;55778;54.346;10.210;2023-04-24T01:36:33;9.20;;;5.43;;
68792;SDS011;55778;54.346;10.210;2023-04-24T01:39:00;9.60;;;5.60;;
68792;SDS011;55778;54.346;10.210;2023-04-24T01:41:25;10.13;;;5.82;;
68792;SDS011;55778;54.346;10.210;2023-04-24T01:43:51;9.82;;;5.82;;
68792;SDS011;55778;54.346;10.210;2023-04-24T01:46:17;9.35;;;5.72;;
68792;SDS011;55778;54.346;10.210;2023-04-24T01:48:43;8.77;;;5.82;;
68792;SDS011;55778;54.346;10.210;2023-04-24T01:51:10;8.48;;;5.25;;
68792;SDS011;55778;54.346;10.210;2023-04-24T01:53:35;8.48;;;5.63;;
68792;SDS011;55778;54.346;10.210;2023-04-24T01:56:00;10.20;;;5.90;;
68792;SDS011;55778;54.346;10.210;2023-04-24T01:58:26;9.35;;;6.13;;
68792;SDS011;55778;54.346;10.210;2023-04-24T02:00:52;11.07;;;6.28;;
68792;SDS011;55778;54.346;10.210;2023-04-24T02:03:17;9.82;;;5.55;;
68792;SDS011;55778;54.346;10.210;2023-04-24T02:05:45;7.55;;;4.72;;
68792;SDS011;55778;54.346;10.210;2023-04-24T02:08:11;8.05;;;4.75;;
68792;SDS011;55778;54.346;10.210;2023-04-24T02:10:36;7.53;;;5.10;;
68792;SDS011;55778;54.346;10.210;2023-04-24T02:13:02;11.15;;;5.28;;
68792;SDS011;55778;54.346;10.210;2023-04-24T02:15:27;9.50;;;4.57;;
68792;SDS011;55778;54.346;10.210;2023-04-24T02:17:53;6.28;;;4.45;;
68792;SDS011;55778;54.346;10.210;2023-04-24T02:20:18;7.45;;;5.15;;
68792;SDS011;55778;54.346;10.210;2023-04-24T02:22:43;7.55;;;4.90;;
68792;SDS011;55778;54.346;10.210;2023-04-24T02:25:09;10.05;;;5.20;;
68792;SDS011;55778;54.346;10.210;2023-04-24T02:27:34;7.90;;;5.07;;
68792;SDS011;55778;54.346;10.210;2023-04-24T02:29:59;8.75;;;4.85;;
68792;SDS011;55778;54.346;10.210;2023-04-24T02:32:25;8.18;;;4.78;;
68792;SDS011;55778;54.346;10.210;2023-04-24T02:34:51;8.85;;;4.80;;
68792;SDS011;55778;54.346;10.210;2023-04-24T02:37:16;8.48;;;5.30;;
68792;SDS011;55778;54.346;10.210;2023-04-24T02:39:41;7.80;;;5.07;;
68792;SDS011;55778;54.346;10.210;2023-04-24T02:42:07;8.13;;;5.13;;
68792;SDS011;55778;54.346;10.210;2023-04-24T02:44:33;8.15;;;5.28;;
68792;SDS011;55778;54.346;10.210;2023-04-24T02:46:58;8.40;;;5.45;;
68792;SDS011;55778;54.346;10.210;2023-04-24T02:49:24;8.05;;;5.32;;
68792;SDS011;55778;54.346;10.210;2023-04-24T02:51:49;9.00;;;5.47;;
68792;SDS011;55778;54.346;10.210;2023-04-24T02:54:15;8.68;;;5.85;;
68792;SDS011;55778;54.346;10.210;2023-04-24T02:56:40;11.55;;;5.75;;
68792;SDS011;55778;54.346;10.210;2023-04-24T02:59:05;10.60;;;5.78;;
68792;SDS011;55778;54.346;10.210;2023-04-24T03:01:31;6.78;;;4.20;;
68792;SDS011;55778;54.346;10.210;2023-04-24T03:03:56;8.68;;;5.13;;
68792;SDS011;55778;54.346;10.210;2023-04-24T03:06:21;7.80;;;5.65;;
68792;SDS011;55778;54.346;10.210;2023-04-24T03:08:47;8.23;;;4.90;;
68792;SDS011;55778;54.346;10.210;2023-04-24T03:11:13;8.38;;;5.32;;
68792;SDS011;55778;54.346;10.210;2023-04-24T03:13:38;6.28;;;4.10;;
68792;SDS011;55778;54.346;10.210;2023-04-24T03:16:04;9.60;;;5.50;;
68792;SDS011;55778;54.346;10.210;2023-04-24T03:18:30;7.88;;;5.05;;
68792;SDS011;55778;54.346;10.210;2023-04-24T03:20:55;7.10;;;4.63;;
68792;SDS011;55778;54.346;10.210;2023-04-24T03:23:21;8.93;;;5.53;;
68792;SDS011;55778;54.346;10.210;2023-04-24T03:25:46;8.13;;;5.32;;
68792;SDS011;55778;54.346;10.210;2023-04-24T03:28:13;7.90;;;5.03;;
68792;SDS011;55778;54.346;10.210;2023-04-24T03:30:38;8.38;;;5.82;;
68792;SDS011;55778;54.346;10.210;2023-04-24T03:33:04;7.55;;;5.00;;
68792;SDS011;55778;54.346;10.210;2023-04-24T03:35:29;7.78;;;4.90;;
68792;SDS011;55778;54.346;10.210;2023-04-24T03:37:57;6.47;;;4.78;;
68792;SDS011;55778;54.346;10.210;2023-04-24T03:40:22;7.00;;;4.60;;
68792;SDS011;55778;54.346;10.210;2023-04-24T03:42:48;6.70;;;4.50;;
68792;SDS011;55778;54.346;10.210;2023-04-24T03:45:13;7.95;;;4.70;;
68792;SDS011;55778;54.346;10.210;2023-04-24T03:47:38;7.78;;;4.65;;
68792;SDS011;55778;54.346;10.210;2023-04-24T03:50:04;6.53;;;4.20;;
68792;SDS011;55778;54.346;10.210;2023-04-24T03:52:30;6.95;;;4.43;;
68792;SDS011;55778;54.346;10.210;2023-04-24T03:54:55;6.72;;;4.35;;
68792;SDS011;55778;54.346;10.210;2023-04-24T03:57:20;7.97;;;4.70;;
68792;SDS011;55778;54.346;10.210;2023-04-24T03:59:46;7.25;;;4.35;;
68792;SDS011;55778;54.346;10.210;2023-04-24T04:02:11;6.40;;;4.40;;
68792;SDS011;55778;54.346;10.210;2023-04-24T04:04:37;8.32;;;4.47;;
68792;SDS011;55778;54.346;10.210;2023-04-24T04:07:02;8.63;;;4.35;;
68792;SDS011;55778;54.346;10.210;2023-04-24T04:09:28;6.75;;;3.90;;
68792;SDS011;55778;54.346;10.210;2023-04-24T04:11:54;6.50;;;4.15;;
68792;SDS011;55778;54.346;10.210;2023-04-24T04:14:20;6.18;;;4.10;;
68792;SDS011;55778;54.346;10.210;2023-04-24T04:16:49;7.43;;;4.20;;
68792;SDS011;55778;54.346;10.210;2023-04-24T04:19:14;7.25;;;4.60;;
68792;SDS011;55778;54.346;10.210;2023-04-24T04:21:39;7.15;;;4.47;;
68792;SDS011;55778;54.346;10.210;2023-04-24T04:24:05;6.25;;;3.80;;
68792;SDS011;55778;54.346;10.210;2023-04-24T04:26:32;6.30;;;4.00;;
68792;SDS011;55778;54.346;10.210;2023-04-24T04:28:58;6.45;;;4.40;;
68792;SDS011;55778;54.346;10.210;2023-04-24T04:31:25;7.05;;;3.92;;
68792;SDS011;55778;54.346;10.210;2023-04-24T04:33:51;6.07;;;4.18;;
68792;SDS011;55778;54.346;10.210;2023-04-24T04:36:16;7.57;;;4.07;;
68792;SDS011;55778;54.346;10.210;2023-04-24T04:38:43;5.85;;;3.15;;
68792;SDS011;55778;54.346;10.210;2023-04-24T04:41:09;5.57;;;3.50;;
68792;SDS011;55778;54.346;10.210;2023-04-24T04:43:35;6.22;;;3.40;;
68792;SDS011;55778;54.346;10.210;2023-04-24T04:46:01;5.20;;;3.40;;
68792;SDS011;55778;54.346;10.210;2023-04-24T04:48:28;5.95;;;3.35;;
68792;SDS011;55778;54.346;10.210;2023-04-24T04:50:53;4.70;;;3.00;;
68792;SDS011;55778;54.346;10.210;2023-04-24T04:53:19;5.15;;;3.20;;
68792;SDS011;55778;54.346;10.210;2023-04-24T04:55:44;4.40;;;3.00;;
68792;SDS011;55778;54.346;10.210;2023-04-24T04:58:11;4.57;;;2.67;;
68792;SDS011;55778;54.346;10.210;2023-04-24T05:00:36;4.95;;;3.03;;
68792;SDS011;55778;54.346;10.210;2023-04-24T05:03:02;3.97;;;2.60;;
68792;SDS011;55778;54.346;10.210;2023-04-24T05:05:28;3.67;;;2.67;;
68792;SDS011;55778;54.346;10.210;2023-04-24T05:07:53;3.97;;;2.30;;
68792;SDS011;55778;54.346;10.210;2023-04-24T05:10:19;4.20;;;2.67;;
68792;SDS011;55778;54.346;10.210;2023-04-24T05:12:44;3.92;;;2.25;;
68792;SDS011;55778;54.346;10.210;2023-04-24T05:15:10;3.65;;;2.28;;
68792;SDS011;55778;54.346;10.210;2023-04-24T05:17:36;6.90;;;2.40;;
68792;SDS011;55778;54.346;10.210;2023-04-24T05:20:02;3.00;;;1.73;;
68792;SDS011;55778;54.346;10.210;2023-04-24T05:22:30;5.22;;;3.42;;
68792;SDS011;55778;54.346;10.210;2023-04-24T05:24:56;3.75;;;2.55;;
68792;SDS011;55778;54.346;10.210;2023-04-24T05:27:21;3.55;;;2.28;;
68792;SDS011;55778;54.346;10.210;2023-04-24T05:29:46;4.97;;;2.70;;
68792;SDS011;55778;54.346;10.210;2023-04-24T05:32:12;3.65;;;2.00;;
68792;SDS011;55778;54.346;10.210;2023-04-24T05:34:37;3.55;;;2.22;;
68792;SDS011;55778;54.346;10.210;2023-04-24T05:37:02;3.15;;;2.40;;
68792;SDS011;55778;54.346;10.210;2023-04-24T05:39:28;4.10;;;2.53;;
68792;SDS011;55778;54.346;10.210;2023-04-24T05:41:54;3.65;;;2.42;;
68792;SDS011;55778;54.346;10.210;2023-04-24T05:44:23;3.45;;;2.60;;
68792;SDS011;55778;54.346;10.210;2023-04-24T05:46:48;3.90;;;2.88;;
68792;SDS011;55778;54.346;10.210;2023-04-24T05:49:14;3.15;;;2.00;;
68792;SDS011;55778;54.346;10.210;2023-04-24T05:51:39;4.13;;;2.70;;
68792;SDS011;55778;54.346;10.210;2023-04-24T05:54:05;4.55;;;2.78;;
68792;SDS011;55778;54.346;10.210;2023-04-24T05:56:30;3.63;;;2.50;;
68792;SDS011;55778;54.346;10.210;2023-04-24T05:58:56;4.07;;;2.65;;
68792;SDS011;55778;54.346;10.210;2023-04-24T06:01:21;4.45;;;2.42;;
68792;SDS011;55778;54.346;10.210;2023-04-24T06:03:46;3.22;;;2.20;;
68792;SDS011;55778;54.346;10.210;2023-04-24T06:06:12;4.78;;;2.72;;
68792;SDS011;55778;54.346;10.210;2023-04-24T06:08:37;3.58;;;2.42;;
68792;SDS011;55778;54.346;10.210;2023-04-24T06:11:03;3.70;;;2.28;;
68792;SDS011;55778;54.346;10.210;2023-04-24T06:13:28;4.43;;;2.42;;
68792;SDS011;55778;54.346;10.210;2023-04-24T06:15:53;3.20;;;2.20;;
68792;SDS011;55778;54.346;10.210;2023-04-24T06:18:19;4.78;;;2.88;;
68792;SDS011;55778;54.346;10.210;2023-04-24T06:20:45;2.92;;;2.10;;
68792;SDS011;55778;54.346;10.210;2023-04-24T06:23:10;4.07;;;2.22;;
68792;SDS011;55778;54.346;10.210;2023-04-24T06:25:36;3.90;;;2.50;;
68792;SDS011;55778;54.346;10.210;2023-04-24T06:28:02;4.05;;;2.30;;
68792;SDS011;55778;54.346;10.210;2023-04-24T06:30:28;2.88;;;2.20;;
68792;SDS011;55778;54.346;10.210;2023-04-24T06:32:53;4.40;;;2.00;;
68792;SDS011;55778;54.346;10.210;2023-04-24T06:35:19;3.20;;;2.10;;
68792;SDS011;55778;54.346;10.210;2023-04-24T06:37:44;4.03;;;2.38;;
68792;SDS011;55778;54.346;10.210;2023-04-24T06:40:10;4.07;;;2.33;;
68792;SDS011;55778;54.346;10.210;2023-04-24T06:42:36;4.00;;;2.17;;
68792;SDS011;55778;54.346;10.210;2023-04-24T06:45:01;3.13;;;2.20;;
68792;SDS011;55778;54.346;10.210;2023-04-24T06:47:28;3.38;;;2.05;;
68792;SDS011;55778;54.346;10.210;2023-04-24T06:49:53;2.28;;;1.80;;
68792;SDS011;55778;54.346;10.210;2023-04-24T06:52:20;1.80;;;1.52;;
68792;SDS011;55778;54.346;10.210;2023-04-24T06:54:45;2.97;;;1.98;;
68792;SDS011;55778;54.346;10.210;2023-04-24T06:57:11;2.70;;;2.03;;
68792;SDS011;55778;54.346;10.210;2023-04-24T06:59:36;3.30;;;1.80;;
68792;SDS011;55778;54.346;10.210;2023-04-24T07:02:02;3.97;;;2.08;;
68792;SDS011;55778;54.346;10.210;2023-04-24T07:04:30;2.42;;;1.90;;
68792;SDS011;55778;54.346;10.210;2023-04-24T07:06:56;2.92;;;2.10;;
68792;SDS011;55778;54.346;10.210;2023-04-24T07:09:23;2.60;;;1.83;;
68792;SDS011;55778;54.346;10.210;2023-04-24T07:11:50;2.95;;;1.85;;
68792;SDS011;55778;54.346;10.210;2023-04-24T07:14:16;2.95;;;1.80;;
68792;SDS011;55778;54.346;10.210;2023-04-24T07:16:42;2.97;;;2.00;;
68792;SDS011;55778;54.346;10.210;2023-04-24T07:19:08;3.80;;;2.22;;
68792;SDS011;55778;54.346;10.210;2023-04-24T07:21:33;2.53;;;1.70;;
68792;SDS011;55778;54.346;10.210;2023-04-24T07:23:59;3.83;;;1.77;;
68792;SDS011;55778;54.346;10.210;2023-04-24T07:26:25;4.38;;;2.00;;
68792;SDS011;55778;54.346;10.210;2023-04-24T07:28:54;2.58;;;1.92;;
68792;SDS011;55778;54.346;10.210;2023-04-24T07:31:20;3.40;;;2.00;;
68792;SDS011;55778;54.346;10.210;2023-04-24T07:33:46;2.00;;;1.73;;
68792;SDS011;55778;54.346;10.210;2023-04-24T07:36:11;3.50;;;1.95;;
68792;SDS011;55778;54.346;10.210;2023-04-24T07:38:41;3.45;;;1.65;;
68792;SDS011;55778;54.346;10.210;2023-04-24T07:41:07;2.67;;;1.80;;
68792;SDS011;55778;54.346;10.210;2023-04-24T07:43:32;3.83;;;1.80;;
68792;SDS011;55778;54.346;10.210;2023-04-24T07:45:58;2.90;;;1.80;;
68792;SDS011;55778;54.346;10.210;2023-04-24T07:48:23;3.45;;;1.80;;
68792;SDS011;55778;54.346;10.210;2023-04-24T07:50:51;3.03;;;1.73;;
68792;SDS011;55778;54.346;10.210;2023-04-24T07:53:16;2.67;;;1.60;;
68792;SDS011;55778;54.346;10.210;2023-04-24T07:55:41;4.38;;;2.00;;
68792;SDS011;55778;54.346;10.210;2023-04-24T07:58:07;2.88;;;2.00;;
68792;SDS011;55778;54.346;10.210;2023-04-24T08:00:32;6.28;;;2.40;;
68792;SDS011;55778;54.346;10.210;2023-04-24T08:02:58;3.90;;;2.08;;
68792;SDS011;55778;54.346;10.210;2023-04-24T08:05:23;3.47;;;2.10;;
68792;SDS011;55778;54.346;10.210;2023-04-24T08:07:50;3.45;;;2.50;;
68792;SDS011;55778;54.346;10.210;2023-04-24T08:10:15;4.32;;;2.15;;
68792;SDS011;55778;54.346;10.210;2023-04-24T08:12:41;3.28;;;2.20;;
68792;SDS011;55778;54.346;10.210;2023-04-24T08:15:06;3.67;;;2.10;;
68792;SDS011;55778;54.346;10.210;2023-04-24T08:17:33;3.05;;;2.05;;
68792;SDS011;55778;54.346;10.210;2023-04-24T08:20:00;3.00;;;1.92;;
68792;SDS011;55778;54.346;10.210;2023-04-24T08:22:26;3.15;;;2.20;;
68792;SDS011;55778;54.346;10.210;2023-04-24T08:24:52;2.95;;;2.40;;
68792;SDS011;55778;54.346;10.210;2023-04-24T08:27:18;3.00;;;2.25;;
68792;SDS011;55778;54.346;10.210;2023-04-24T08:29:43;2.88;;;1.98;;
68792;SDS011;55778;54.346;10.210;2023-04-24T08:32:09;2.55;;;2.13;;
68792;SDS011;55778;54.346;10.210;2023-04-24T08:34:34;3.75;;;2.20;;
68792;SDS011;55778;54.346;10.210;2023-04-24T08:37:00;3.60;;;2.60;;
68792;SDS011;55778;54.346;10.210;2023-04-24T08:39:25;4.32;;;2.50;;
68792;SDS011;55778;54.346;10.210;2023-04-24T08:41:50;3.83;;;2.70;;
68792;SDS011;55778;54.346;10.210;2023-04-24T08:44:17;4.85;;;2.53;;
68792;SDS011;55778;54.346;10.210;2023-04-24T08:46:44;4.00;;;2.88;;
68792;SDS011;55778;54.346;10.210;2023-04-24T08:49:13;3.88;;;2.85;;
68792;SDS011;55778;54.346;10.210;2023-04-24T08:51:41;4.85;;;2.90;;
68792;SDS011;55778;54.346;10.210;2023-04-24T08:54:07;3.47;;;2.60;;
68792;SDS011;55778;54.346;10.210;2023-04-24T08:56:33;4.35;;;2.53;;
68792;SDS011;55778;54.346;10.210;2023-04-24T08:59:03;4.68;;;3.17;;
68792;SDS011;55778;54.346;10.210;2023-04-24T09:01:29;4.35;;;3.33;;
68792;SDS011;55778;54.346;10.210;2023-04-24T09:03:57;4.05;;;2.83;;
68792;SDS011;55778;54.346;10.210;2023-04-24T09:06:27;4.50;;;3.00;;
68792;SDS011;55778;54.346;10.210;2023-04-24T09:08:53;4.63;;;3.08;;
68792;SDS011;55778;54.346;10.210;2023-04-24T09:11:20;4.63;;;3.03;;
68792;SDS011;55778;54.346;10.210;2023-04-24T09:13:49;3.92;;;2.90;;
68792;SDS011;55778;54.346;10.210;2023-04-24T09:16:15;4.85;;;3.05;;
68792;SDS011;55778;54.346;10.210;2023-04-24T09:18:41;4.28;;;3.10;;
68792;SDS011;55778;54.346;10.210;2023-04-24T09:21:07;4.25;;;3.13;;
68792;SDS011;55778;54.346;10.210;2023-04-24T09:23:34;4.80;;;3.15;;
68792;SDS011;55778;54.346;10.210;2023-04-24T09:26:01;5.63;;;2.88;;
68792;SDS011;55778;54.346;10.210;2023-04-24T09:28:37;4.00;;;3.17;;
68792;SDS011;55778;54.346;10.210;2023-04-24T09:31:14;5.25;;;3.25;;
68792;SDS011;55778;54.346;10.210;2023-04-24T09:36:31;5.30;;;3.58;;
68792;SDS011;55778;54.346;10.210;2023-04-24T09:39:00;5.03;;;3.85;;
68792;SDS011;55778;54.346;10.210;2023-04-24T09:41:29;6.25;;;3.72;;
68792;SDS011;55778;54.346;10.210;2023-04-24T09:43:55;6.15;;;3.85;;
68792;SDS011;55778;54.346;10.210;2023-04-24T09:46:21;6.15;;;4.13;;
68792;SDS011;55778;54.346;10.210;2023-04-24T09:49:02;7.05;;;4.63;;
68792;SDS011;55778;54.346;10.210;2023-04-24T09:51:34;7.00;;;4.75;;
68792;SDS011;55778;54.346;10.210;2023-04-24T09:54:01;6.18;;;4.13;;
68792;SDS011;55778;54.346;10.210;2023-04-24T09:56:29;6.97;;;3.63;;
68792;SDS011;55778;54.346;10.210;2023-04-24T09:59:06;6.47;;;4.15;;
68792;SDS011;55778;54.346;10.210;2023-04-24T10:01:33;7.22;;;4.63;;
68792;SDS011;55778;54.346;10.210;2023-04-24T10:03:58;5.90;;;4.38;;
68792;SDS011;55778;54.346;10.210;2023-04-24T10:06:30;6.75;;;4.20;;
68792;SDS011;55778;54.346;10.210;2023-04-24T10:08:58;5.63;;;3.60;;
68792;SDS011;55778;54.346;10.210;2023-04-24T10:11:26;5.70;;;4.40;;
68792;SDS011;55778;54.346;10.210;2023-04-24T10:13:52;5.78;;;4.32;;
68792;SDS011;55778;54.346;10.210;2023-04-24T10:16:18;6.03;;;4.35;;
68792;SDS011;55778;54.346;10.210;2023-04-24T10:18:46;5.03;;;3.30;;
68792;SDS011;55778;54.346;10.210;2023-04-24T10:21:14;7.20;;;4.88;;
68792;SDS011;55778;54.346;10.210;2023-04-24T10:23:40;5.60;;;4.13;;
68792;SDS011;55778;54.346;10.210;2023-04-24T10:26:07;4.78;;;3.28;;
68792;SDS011;55778;54.346;10.210;2023-04-24T10:28:35;5.15;;;3.70;;
68792;SDS011;55778;54.346;10.210;2023-04-24T10:31:01;5.78;;;4.22;;
68792;SDS011;55778;54.346;10.210;2023-04-24T10:33:27;5.97;;;4.45;;
68792;SDS011;55778;54.346;10.210;2023-04-24T10:35:54;6.25;;;4.40;;
68792;SDS011;55778;54.346;10.210;2023-04-24T10:38:27;6.80;;;4.30;;
68792;SDS011;55778;54.346;10.210;2023-04-24T10:41:12;6.20;;;4.18;;
68792;SDS011;55778;54.346;10.210;2023-04-24T10:43:44;5.78;;;3.60;;
68792;SDS011;55778;54.346;10.210;2023-04-24T10:46:16;6.53;;;4.35;;
68792;SDS011;55778;54.346;10.210;2023-04-24T10:48:52;5.97;;;4.55;;
68792;SDS011;55778;54.346;10.210;2023-04-24T10:51:21;7.18;;;4.72;;
68792;SDS011;55778;54.346;10.210;2023-04-24T10:54:29;7.22;;;4.60;;
68792;SDS011;55778;54.346;10.210;2023-04-24T10:59:44;5.85;;;3.88;;
68792;SDS011;55778;54.346;10.210;2023-04-24T11:02:11;6.78;;;4.50;;
68792;SDS011;55778;54.346;10.210;2023-04-24T11:04:40;7.30;;;3.95;;
68792;SDS011;55778;54.346;10.210;2023-04-24T11:07:08;6.70;;;4.43;;
68792;SDS011;55778;54.346;10.210;2023-04-24T11:09:37;7.00;;;4.50;;
68792;SDS011;55778;54.346;10.210;2023-04-24T11:12:06;7.00;;;4.80;;
68792;SDS011;55778;54.346;10.210;2023-04-24T11:20:11;6.85;;;4.85;;
68792;SDS011;55778;54.346;10.210;2023-04-24T11:22:42;7.57;;;4.72;;
68792;SDS011;55778;54.346;10.210;2023-04-24T11:25:08;7.50;;;5.32;;
68792;SDS011;55778;54.346;10.210;2023-04-24T11:30:07;11.25;;;4.75;;
68792;SDS011;55778;54.346;10.210;2023-04-24T11:34:59;7.70;;;5.10;;
68792;SDS011;55778;54.346;10.210;2023-04-24T11:37:29;7.30;;;5.07;;
68792;SDS011;55778;54.346;10.210;2023-04-24T11:40:00;8.88;;;5.97;;
68792;SDS011;55778;54.346;10.210;2023-04-24T11:42:25;10.45;;;5.82;;
68792;SDS011;55778;54.346;10.210;2023-04-24T11:44:54;8.20;;;5.13;;
68792;SDS011;55778;54.346;10.210;2023-04-24T11:47:27;7.80;;;5.53;;
68792;SDS011;55778;54.346;10.210;2023-04-24T11:49:53;8.50;;;5.50;;
68792;SDS011;55778;54.346;10.210;2023-04-24T11:52:19;9.13;;;5.70;;
68792;SDS011;55778;54.346;10.210;2023-04-24T11:54:48;11.32;;;5.95;;
68792;SDS011;55778;54.346;10.210;2023-04-24T11:57:15;9.43;;;5.90;;
68792;SDS011;55778;54.346;10.210;2023-04-24T11:59:40;8.85;;;6.20;;
68792;SDS011;55778;54.346;10.210;2023-04-24T12:02:06;8.73;;;5.85;;
68792;SDS011;55778;54.346;10.210;2023-04-24T12:04:38;8.90;;;5.97;;
68792;SDS011;55778;54.346;10.210;2023-04-24T12:07:05;9.25;;;6.35;;
68792;SDS011;55778;54.346;10.210;2023-04-24T12:09:41;10.75;;;6.10;;
68792;SDS011;55778;54.346;10.210;2023-04-24T12:14:49;11.35;;;5.55;;
68792;SDS011;55778;54.346;10.210;2023-04-24T12:17:23;8.93;;;5.07;;
68792;SDS011;55778;54.346;10.210;2023-04-24T12:19:51;8.77;;;5.70;;
68792;SDS011;55778;54.346;10.210;2023-04-24T12:22:17;8.80;;;5.32;;
68792;SDS011;55778;54.346;10.210;2023-04-24T12:24:55;6.70;;;4.20;;
68792;SDS011;55778;54.346;10.210;2023-04-24T12:27:33;9.38;;;5.80;;
68792;SDS011;55778;54.346;10.210;2023-04-24T12:30:00;10.83;;;6.30;;
68792;SDS011;55778;54.346;10.210;2023-04-24T12:32:27;8.73;;;6.03;;
68792;SDS011;55778;54.346;10.210;2023-04-24T12:34:53;9.70;;;6.68;;
68792;SDS011;55778;54.346;10.210;2023-04-24T12:37:20;9.57;;;5.63;;
68792;SDS011;55778;54.346;10.210;2023-04-24T12:40:00;9.48;;;6.60;;
68792;SDS011;55778;54.346;10.210;2023-04-24T12:42:26;9.38;;;5.70;;
68792;SDS011;55778;54.346;10.210;2023-04-24T12:44:55;8.55;;;5.35;;
68792;SDS011;55778;54.346;10.210;2023-04-24T12:47:24;8.05;;;5.70;;
68792;SDS011;55778;54.346;10.210;2023-04-24T12:49:49;8.80;;;5.45;;
68792;SDS011;55778;54.346;10.210;2023-04-24T12:52:17;8.77;;;5.65;;
68792;SDS011;55778;54.346;10.210;2023-04-24T12:54:43;7.47;;;4.88;;
68792;SDS011;55778;54.346;10.210;2023-04-24T12:57:09;9.13;;;5.82;;
68792;SDS011;55778;54.346;10.210;2023-04-24T12:59:34;8.98;;;5.80;;
68792;SDS011;55778;54.346;10.210;2023-04-24T13:01:59;10.80;;;6.05;;
68792;SDS011;55778;54.346;10.210;2023-04-24T13:04:25;9.95;;;5.80;;
68792;SDS011;55778;54.346;10.210;2023-04-24T13:06:50;6.70;;;4.40;;
68792;SDS011;55778;54.346;10.210;2023-04-24T13:09:16;10.23;;;6.10;;
68792;SDS011;55778;54.346;10.210;2023-04-24T13:11:41;9.45;;;5.93;;
68792;SDS011;55778;54.346;10.210;2023-04-24T13:14:06;9.38;;;6.20;;
68792;SDS011;55778;54.346;10.210;2023-04-24T13:16:32;9.90;;;6.60;;
68792;SDS011;55778;54.346;10.210;2023-04-24T13:18:57;10.77;;;6.00;;
68792;SDS011;55778;54.346;10.210;2023-04-24T13:21:22;10.35;;;6.82;;
68792;SDS011;55778;54.346;10.210;2023-04-24T13:23:48;12.18;;;7.15;;
68792;SDS011;55778;54.346;10.210;2023-04-24T13:26:17;11.77;;;6.82;;
68792;SDS011;55778;54.346;10.210;2023-04-24T13:28:42;11.75;;;7.60;;
68792;SDS011;55778;54.346;10.210;2023-04-24T13:31:07;14.00;;;8.05;;
68792;SDS011;55778;54.346;10.210;2023-04-24T13:33:33;15.52;;;8.05;;
68792;SDS011;55778;54.346;10.210;2023-04-24T13:35:58;14.15;;;7.90;;
68792;SDS011;55778;54.346;10.210;2023-04-24T13:38:24;16.05;;;7.82;;
68792;SDS011;55778;54.346;10.210;2023-04-24T13:40:50;14.77;;;7.45;;
68792;SDS011;55778;54.346;10.210;2023-04-24T13:43:16;11.13;;;5.80;;
68792;SDS011;55778;54.346;10.210;2023-04-24T13:45:41;13.07;;;7.65;;
68792;SDS011;55778;54.346;10.210;2023-04-24T13:48:06;11.35;;;6.60;;
68792;SDS011;55778;54.346;10.210;2023-04-24T13:50:33;12.63;;;7.30;;
68792;SDS011;55778;54.346;10.210;2023-04-24T13:52:59;11.07;;;6.43;;
68792;SDS011;55778;54.346;10.210;2023-04-24T13:55:26;12.98;;;6.97;;
68792;SDS011;55778;54.346;10.210;2023-04-24T13:57:51;12.93;;;7.75;;
68792;SDS011;55778;54.346;10.210;2023-04-24T14:00:19;14.48;;;8.45;;
68792;SDS011;55778;54.346;10.210;2023-04-24T14:02:45;14.27;;;7.93;;
68792;SDS011;55778;54.346;10.210;2023-04-24T14:05:12;12.65;;;7.68;;
68792;SDS011;55778;54.346;10.210;2023-04-24T14:07:40;13.47;;;7.83;;
68792;SDS011;55778;54.346;10.210;2023-04-24T14:10:06;15.60;;;8.20;;
68792;SDS011;55778;54.346;10.210;2023-04-24T14:12:31;16.90;;;8.52;;
68792;SDS011;55778;54.346;10.210;2023-04-24T14:14:57;13.35;;;7.97;;
68792;SDS011;55778;54.346;10.210;2023-04-24T14:17:22;15.48;;;8.48;;
68792;SDS011;55778;54.346;10.210;2023-04-24T14:19:48;8.70;;;5.43;;
68792;SDS011;55778;54.346;10.210;2023-04-24T14:22:13;8.18;;;5.25;;
68792;SDS011;55778;54.346;10.210;2023-04-24T14:24:39;10.00;;;6.22;;
68792;SDS011;55778;54.346;10.210;2023-04-24T14:27:04;11.40;;;6.70;;
68792;SDS011;55778;54.346;10.210;2023-04-24T14:29:29;12.10;;;6.90;;
68792;SDS011;55778;54.346;10.210;2023-04-24T14:31:55;12.13;;;6.85;;
68792;SDS011;55778;54.346;10.210;2023-04-24T14:34:20;9.70;;;5.53;;
68792;SDS011;55778;54.346;10.210;2023-04-24T14:36:46;9.07;;;5.53;;
68792;SDS011;55778;54.346;10.210;2023-04-24T14:39:11;9.57;;;6.03;;
68792;SDS011;55778;54.346;10.210;2023-04-24T14:41:37;9.57;;;6.03;;
68792;SDS011;55778;54.346;10.210;2023-04-24T14:44:04;9.27;;;5.93;;
68792;SDS011;55778;54.346;10.210;2023-04-24T14:46:30;11.20;;;6.65;;
68792;SDS011;55778;54.346;10.210;2023-04-24T14:48:58;10.20;;;7.10;;
68792;SDS011;55778;54.346;10.210;2023-04-24T14:51:24;9.15;;;5.97;;